Time;durP1;ratioP1;P1;durP2;ratioP2;P2;SDS_P1;SDS_P2;PMS_P1;PMS_P2;Temp;Humidity;BMP_temperature;BMP_pressure;BME280_temperature;BME280_humidity;BME280_pressure;Samples;Min_cycle;Max_cycle;Signal;HPM_P1;HPM_P2
2021/06/29 00:07:36;;;;;;;6.83;0.40;;;23.20;99.90;;;;;;20902030;28;20225;-66
2021/06/29 00:17:41;;;;;;;0.30;0.30;;;23.40;99.90;;;;;;20901783;28;20237;-66
2021/06/29 00:27:46;;;;;;;0.53;0.20;;;23.20;99.90;;;;;;20972695;28;20303;-66
2021/06/29 00:37:51;;;;;;;1.00;0.83;;;22.90;99.90;;;;;;20925476;28;20197;-66
2021/06/29 00:47:54;;;;;;;0.40;0.37;;;22.60;99.90;;;;;;20899851;28;20292;-65
2021/06/29 00:57:59;;;;;;;0.50;0.43;;;22.30;99.90;;;;;;20898640;28;20821;-64
2021/06/29 01:08:03;;;;;;;0.40;0.30;;;22.20;99.90;;;;;;20985987;23;20728;-75
2021/06/29 01:18:13;;;;;;;0.83;0.30;;;22.10;99.90;;;;;;20960305;28;20222;-76
2021/06/29 01:28:22;;;;;;;0.37;0.30;;;22.00;99.90;;;;;;20979878;28;20312;-74
2021/06/29 01:38:26;;;;;;;0.30;0.30;;;21.80;99.90;;;;;;21036905;28;20275;-74
2021/06/29 01:48:32;;;;;;;0.20;0.20;;;21.80;99.90;;;;;;21064079;28;20243;-75
2021/06/29 01:58:36;;;;;;;0.20;0.20;;;21.50;99.90;;;;;;21076007;28;20196;-75
2021/06/29 02:08:42;;;;;;;0.20;0.20;;;21.50;99.90;;;;;;21078003;28;20256;-75
2021/06/29 02:18:46;;;;;;;0.20;0.20;;;21.50;99.90;;;;;;21076806;28;20609;-75
2021/06/29 02:28:51;;;;;;;0.50;0.33;;;21.50;99.90;;;;;;20993952;28;20255;-76
2021/06/29 02:38:54;;;;;;;0.20;0.10;;;21.50;99.90;;;;;;21053338;28;20597;-76
2021/06/29 02:48:59;;;;;;;0.20;0.10;;;21.60;99.90;;;;;;21055076;28;20252;-76
2021/06/29 02:59:03;;;;;;;0.57;0.47;;;21.60;99.90;;;;;;21073604;28;20283;-74
2021/06/29 03:09:10;;;;;;;0.87;0.13;;;21.60;99.90;;;;;;21071389;28;20223;-75
2021/06/29 03:19:13;;;;;;;0.37;0.30;;;21.50;99.90;;;;;;21052315;28;20274;-76
2021/06/29 03:29:19;;;;;;;0.50;0.33;;;21.40;99.90;;;;;;20987127;28;20544;-76
2021/06/29 03:39:22;;;;;;;0.67;0.60;;;21.30;99.90;;;;;;21060127;28;20279;-77
2021/06/29 03:49:28;;;;;;;0.27;0.27;;;21.10;99.90;;;;;;21052035;28;20279;-75
2021/06/29 03:59:32;;;;;;;0.20;0.00;;;21.10;99.90;;;;;;21078217;22;20254;-66
2021/06/29 04:09:38;;;;;;;0.57;0.57;;;21.30;99.90;;;;;;20820212;28;20233;-67
2021/06/29 04:19:42;;;;;;;0.50;0.50;;;21.50;99.90;;;;;;20817578;28;20198;-65
2021/06/29 04:29:47;;;;;;;0.43;0.20;;;21.60;99.90;;;;;;20817835;28;20404;-66
2021/06/29 04:39:51;;;;;;;1.30;0.40;;;21.80;99.90;;;;;;20884113;28;20281;-67
2021/06/29 04:49:57;;;;;;;0.40;0.30;;;21.90;99.90;;;;;;20898944;28;20221;-67
2021/06/29 05:00:05;;;;;;;0.40;0.30;;;21.90;99.90;;;;;;20898104;28;20308;-66
2021/06/29 05:10:12;;;;;;;0.27;0.27;;;22.00;99.90;;;;;;20810666;28;20363;-67
2021/06/29 05:20:16;;;;;;;0.70;0.33;;;22.10;99.90;;;;;;20797670;28;20225;-66
2021/06/29 05:30:21;;;;;;;2.90;0.87;;;22.30;99.90;;;;;;20821693;28;20309;-67
2021/06/29 05:40:25;;;;;;;0.30;0.23;;;22.50;99.90;;;;;;20830734;28;20623;-67
2021/06/29 05:50:30;;;;;;;0.30;0.20;;;22.80;99.90;;;;;;20829790;28;20329;-67
2021/06/29 06:00:34;;;;;;;0.37;0.37;;;23.10;99.90;;;;;;20827815;28;20228;-65
2021/06/29 06:10:39;;;;;;;0.43;0.40;;;23.30;99.90;;;;;;20827404;28;20506;-66
2021/06/29 06:20:43;;;;;;;1.25;1.15;;;23.80;99.90;;;;;;20833904;28;20675;-67
2021/06/29 06:30:48;;;;;;;0.28;0.20;;;24.10;99.90;;;;;;20846765;28;20695;-67
2021/06/29 06:40:51;;;;;;;1.35;0.63;;;24.30;99.90;;;;;;20855628;28;20640;-66
2021/06/29 06:50:56;;;;;;;0.30;0.30;;;24.20;99.90;;;;;;20819020;28;20218;-65
2021/06/29 07:01:00;;;;;;;1.10;1.00;;;24.20;99.90;;;;;;20822271;28;20652;-65
2021/06/29 07:11:06;;;;;;;0.25;0.25;;;24.20;99.90;;;;;;20820744;28;20249;-65
2021/06/29 07:21:11;;;;;;;0.95;0.50;;;24.70;99.90;;;;;;20820386;28;20652;-66
2021/06/29 07:31:17;;;;;;;0.25;0.15;;;25.00;99.90;;;;;;20819634;28;20272;-66
2021/06/29 07:41:21;;;;;;;0.70;0.60;;;25.00;99.90;;;;;;20819379;28;20208;-66
2021/06/29 07:51:28;;;;;;;14.07;0.80;;;24.90;99.90;;;;;;20783709;28;20276;-67
2021/06/29 08:01:32;;;;;;;0.30;0.28;;;25.00;99.90;;;;;;20818475;28;20583;-66
2021/06/29 08:11:37;;;;;;;0.20;0.10;;;24.90;99.90;;;;;;20816518;28;20221;-67
2021/06/29 08:21:42;;;;;;;1.45;1.33;;;25.00;99.90;;;;;;20778369;28;20209;-65
2021/06/29 08:31:47;;;;;;;1.75;0.98;;;25.00;99.90;;;;;;20816631;28;20641;-65
2021/06/29 08:41:51;;;;;;;0.40;0.40;;;24.80;99.90;;;;;;20815693;28;20258;-63
2021/06/29 08:51:57;;;;;;;0.30;0.10;;;25.00;99.90;;;;;;20814965;28;20255;-64
2021/06/29 09:02:02;;;;;;;0.50;0.47;;;25.10;99.90;;;;;;20818995;28;20581;-63
2021/06/29 09:12:10;;;;;;;0.40;0.40;;;25.20;99.90;;;;;;20775643;28;20214;-63
2021/06/29 09:22:29;;;;;;;0.40;0.40;;;25.20;99.90;;;;;;20774217;28;20280;-63
2021/06/29 09:32:36;;;;;;;0.30;0.30;;;25.30;99.90;;;;;;20828539;28;20250;-62
2021/06/29 09:42:40;;;;;;;0.65;0.65;;;25.30;99.90;;;;;;20828900;28;20194;-63
2021/06/29 09:52:45;;;;;;;0.20;0.15;;;25.70;99.90;;;;;;20810631;28;20226;-63
2021/06/29 10:02:48;;;;;;;0.90;0.50;;;25.70;99.90;;;;;;20826982;28;20300;-63
2021/06/29 10:12:53;;;;;;;0.55;0.30;;;26.10;99.90;;;;;;20824851;28;20217;-63
2021/06/29 10:22:57;;;;;;;1.15;0.30;;;25.90;99.90;;;;;;20824776;28;20198;-61
2021/06/29 10:33:03;;;;;;;0.28;0.20;;;26.30;99.90;;;;;;20824727;28;20232;-62
2021/06/29 10:43:07;;;;;;;0.35;0.28;;;26.20;99.90;;;;;;20823386;28;20221;-64
2021/06/29 10:53:37;;;;;;;0.80;0.32;;;26.90;99.90;;;;;;20803520;28;20710;-65
2021/06/29 11:03:41;;;;;;;0.50;0.30;;;26.90;99.90;;;;;;20802681;28;20639;-65
2021/06/29 11:13:48;;;;;;;2.70;0.82;;;27.20;99.90;;;;;;20818024;28;20229;-64
2021/06/29 11:23:52;;;;;;;5.88;1.10;;;27.60;99.90;;;;;;20797213;28;20228;-64
2021/06/29 11:33:58;;;;;;;0.30;0.20;;;27.90;99.90;;;;;;20816938;28;20595;-64
2021/06/29 11:44:40;;;;;;;1.60;0.40;;;27.20;99.90;;;;;;20798694;28;20229;-64
2021/06/29 11:54:50;;;;;;;1.73;1.50;;;27.20;99.90;;;;;;20796227;28;20333;-65
2021/06/29 12:05:05;;;;;;;0.82;0.50;;;26.40;99.90;;;;;;20815508;28;20217;-65
2021/06/29 12:15:14;;;;;;;2.55;0.30;;;26.40;99.90;;;;;;20812958;28;20260;-66
2021/06/29 12:25:24;;;;;;;8.98;0.52;;;26.80;99.90;;;;;;20809004;28;20190;-65
2021/06/29 12:35:32;;;;;;;0.82;0.57;;;27.80;99.90;;;;;;20810373;28;20584;-64
2021/06/29 12:45:36;;;;;;;0.20;0.20;;;27.90;99.90;;;;;;20811292;28;20273;-64
2021/06/29 12:55:41;;;;;;;0.30;0.30;;;26.70;99.90;;;;;;20811692;28;20801;-65
2021/06/29 13:05:44;;;;;;;0.40;0.20;;;27.30;99.90;;;;;;20811202;28;20226;-66
2021/06/29 13:15:52;;;;;;;0.20;0.17;;;27.00;99.90;;;;;;20811174;28;20301;-66
2021/06/29 13:26:07;;;;;;;2.53;0.38;;;26.90;99.90;;;;;;20793356;28;20194;-65
2021/06/29 13:36:16;;;;;;;0.47;0.47;;;26.60;99.90;;;;;;20811261;28;20700;-65
2021/06/29 13:46:19;;;;;;;2.70;0.32;;;26.00;99.90;;;;;;20791958;28;20191;-64
2021/06/29 13:56:37;;;;;;;2.67;0.50;;;25.70;99.90;;;;;;20824951;28;20230;-66
2021/06/29 14:06:41;;;;;;;0.25;0.22;;;25.70;99.90;;;;;;20806533;28;20277;-64
2021/06/29 14:16:46;;;;;;;3.50;0.70;;;25.50;99.90;;;;;;20805485;28;20217;-64
2021/06/29 14:26:50;;;;;;;0.90;0.70;;;25.80;99.90;;;;;;20822751;28;20237;-64
2021/06/29 14:36:55;;;;;;;0.60;0.60;;;25.60;99.90;;;;;;20804308;28;20268;-64
2021/06/29 14:46:59;;;;;;;0.57;0.45;;;25.50;99.90;;;;;;20820145;28;20293;-65
2021/06/29 14:57:04;;;;;;;0.40;0.30;;;26.00;99.90;;;;;;20820680;28;20774;-65
2021/06/29 15:07:08;;;;;;;0.85;0.45;;;26.00;99.90;;;;;;20820242;28;20317;-66
2021/06/29 15:17:14;;;;;;;0.90;0.88;;;25.60;99.90;;;;;;20801435;28;20269;-66
2021/06/29 15:27:19;;;;;;;0.60;0.60;;;25.60;99.90;;;;;;20820696;28;20632;-66
2021/06/29 15:37:25;;;;;;;1.08;0.80;;;25.70;99.90;;;;;;20818951;28;20268;-66
2021/06/29 15:47:28;;;;;;;0.45;0.45;;;25.80;99.90;;;;;;20800040;28;20548;-66
2021/06/29 15:57:33;;;;;;;1.08;0.85;;;25.50;99.90;;;;;;20818461;28;20614;-66
2021/06/29 16:07:37;;;;;;;0.20;0.20;;;25.70;99.90;;;;;;20814550;28;20695;-66
2021/06/29 16:17:43;;;;;;;0.60;0.60;;;26.00;99.90;;;;;;20814601;28;20574;-65
2021/06/29 16:27:47;;;;;;;2.22;1.63;;;25.40;99.90;;;;;;20815696;28;20194;-66
2021/06/29 16:37:52;;;;;;;1.05;0.60;;;25.30;99.90;;;;;;20814981;28;20225;-65
2021/06/29 16:47:58;;;;;;;0.50;0.50;;;24.80;99.90;;;;;;20812229;28;20285;-65
2021/06/29 16:58:03;;;;;;;1.25;1.15;;;24.70;99.90;;;;;;20787108;28;20590;-67
2021/06/29 17:08:07;;;;;;;0.93;0.40;;;24.60;99.90;;;;;;20810085;28;20305;-67
2021/06/29 17:18:12;;;;;;;4.57;2.60;;;24.40;99.90;;;;;;20794029;28;20704;-67
2021/06/29 17:28:16;;;;;;;0.50;0.50;;;24.50;99.90;;;;;;20824426;28;20277;-65
2021/06/29 17:38:21;;;;;;;1.27;0.65;;;24.30;99.90;;;;;;20829741;28;20242;-66
2021/06/29 17:48:25;;;;;;;0.25;0.20;;;24.30;99.90;;;;;;20828688;28;20198;-67
2021/06/29 17:58:30;;;;;;;2.13;0.77;;;24.30;99.90;;;;;;20827704;28;20276;-67
2021/06/29 18:08:34;;;;;;;2.05;0.98;;;24.20;99.90;;;;;;20826577;28;20560;-66
2021/06/29 18:18:39;;;;;;;0.93;0.38;;;24.00;99.90;;;;;;20825787;28;20257;-67
2021/06/29 18:28:44;;;;;;;1.98;0.85;;;24.10;99.90;;;;;;20824476;28;20190;-67
2021/06/29 18:38:49;;;;;;;0.85;0.73;;;24.00;99.90;;;;;;20886113;28;20225;-66
2021/06/29 18:48:53;;;;;;;2.13;0.70;;;23.80;99.90;;;;;;20880176;28;20272;-66
2021/06/29 18:58:58;;;;;;;9.73;1.57;;;23.80;99.90;;;;;;20821283;28;20221;-66
2021/06/29 19:09:02;;;;;;;1.95;1.00;;;23.50;99.90;;;;;;20820698;28;20327;-67
2021/06/29 19:19:08;;;;;;;2.42;1.10;;;23.60;99.90;;;;;;20802083;28;20284;-65
2021/06/29 19:29:12;;;;;;;3.47;0.90;;;23.50;99.90;;;;;;20819014;28;20248;-66
2021/06/29 19:39:17;;;;;;;0.20;0.10;;;23.30;99.90;;;;;;20886274;28;20247;-65
2021/06/29 19:49:21;;;;;;;3.20;0.40;;;23.40;99.90;;;;;;20898137;28;20273;-66
2021/06/29 19:59:26;;;;;;;1.45;1.25;;;23.30;99.90;;;;;;20899524;28;20256;-67
2021/06/29 20:09:29;;;;;;;1.08;0.32;;;23.30;99.90;;;;;;20899485;28;20197;-66
2021/06/29 20:19:34;;;;;;;1.07;0.90;;;23.20;99.90;;;;;;20893443;28;20360;-66
2021/06/29 20:29:38;;;;;;;0.73;0.50;;;23.40;99.90;;;;;;20814686;28;20809;-67
2021/06/29 20:39:43;;;;;;;3.80;1.63;;;23.30;99.90;;;;;;20813775;28;20616;-67
2021/06/29 20:49:47;;;;;;;0.82;0.45;;;23.10;99.90;;;;;;20815599;28;20280;-66
2021/06/29 20:59:53;;;;;;;1.75;1.48;;;23.20;99.90;;;;;;20814522;28;20234;-67
2021/06/29 21:10:12;;;;;;;1.30;0.70;;;23.20;99.90;;;;;;20815762;28;20272;-67
2021/06/29 21:20:17;;;;;;;0.60;0.40;;;23.10;99.90;;;;;;20816656;28;20292;-67
2021/06/29 21:30:21;;;;;;;1.70;0.13;;;23.20;99.90;;;;;;20797894;28;20256;-67
2021/06/29 21:40:31;;;;;;;3.87;0.93;;;23.10;99.90;;;;;;20815468;28;20218;-66
2021/06/29 21:50:39;;;;;;;0.50;0.50;;;23.20;99.90;;;;;;20815120;28;20692;-67
2021/06/29 22:00:49;;;;;;;0.20;0.20;;;23.20;99.90;;;;;;20814092;28;20737;-67
2021/06/29 22:10:58;;;;;;;3.08;0.47;;;23.20;99.90;;;;;;20819575;28;20652;-66
2021/06/29 22:21:08;;;;;;;0.77;0.37;;;23.10;99.90;;;;;;20828420;28;20648;-69
2021/06/29 22:31:17;;;;;;;1.73;0.25;;;23.10;99.90;;;;;;20830160;28;20638;-69
2021/06/29 22:41:27;;;;;;;0.20;0.20;;;23.10;99.90;;;;;;20888039;28;20988;-69
2021/06/29 22:51:35;;;;;;;0.60;0.38;;;23.10;99.90;;;;;;20826964;28;20231;-67
2021/06/29 23:01:45;;;;;;;0.20;0.10;;;23.20;99.90;;;;;;20822755;28;20230;-66
2021/06/29 23:11:54;;;;;;;1.17;0.63;;;23.10;99.90;;;;;;20825783;28;20204;-65
2021/06/29 23:22:04;;;;;;;1.17;0.40;;;22.90;99.90;;;;;;20824180;28;20433;-66
2021/06/29 23:32:13;;;;;;;0.70;0.53;;;22.90;99.90;;;;;;20832534;28;20219;-66
2021/06/29 23:42:23;;;;;;;0.88;0.68;;;23.10;99.90;;;;;;20887024;28;20284;-66
2021/06/29 23:52:32;;;;;;;0.53;0.30;;;23.20;99.90;;;;;;20904116;28;20209;-66
